sensor_id;sensor_type;location;lat;lon;timestamp;P1;durP1;ratioP1;P2;durP2;ratioP2
75732;SDS011;73508;47.424;19.400;2023-12-28T00:00:22;27.53;;;14.80;;
75732;SDS011;73508;47.424;19.400;2023-12-28T00:02:47;28.27;;;14.73;;
75732;SDS011;73508;47.424;19.400;2023-12-28T00:05:13;27.07;;;15.50;;
75732;SDS011;73508;47.424;19.400;2023-12-28T00:07:38;27.25;;;14.73;;
75732;SDS011;73508;47.424;19.400;2023-12-28T00:10:04;28.77;;;15.07;;
75732;SDS011;73508;47.424;19.400;2023-12-28T00:12:29;29.13;;;15.00;;
75732;SDS011;73508;47.424;19.400;2023-12-28T00:14:54;29.40;;;14.93;;
75732;SDS011;73508;47.424;19.400;2023-12-28T00:17:20;30.00;;;14.17;;
75732;SDS011;73508;47.424;19.400;2023-12-28T00:19:46;25.43;;;13.27;;
75732;SDS011;73508;47.424;19.400;2023-12-28T00:22:11;30.37;;;14.40;;
75732;SDS011;73508;47.424;19.400;2023-12-28T00:24:36;28.87;;;14.60;;
75732;SDS011;73508;47.424;19.400;2023-12-28T00:27:02;25.33;;;13.33;;
75732;SDS011;73508;47.424;19.400;2023-12-28T00:29:27;27.37;;;13.37;;
75732;SDS011;73508;47.424;19.400;2023-12-28T00:31:54;29.12;;;14.00;;
75732;SDS011;73508;47.424;19.400;2023-12-28T00:34:19;28.77;;;14.40;;
75732;SDS011;73508;47.424;19.400;2023-12-28T00:36:44;27.90;;;13.63;;
75732;SDS011;73508;47.424;19.400;2023-12-28T00:39:10;24.57;;;13.50;;
75732;SDS011;73508;47.424;19.400;2023-12-28T00:41:35;29.17;;;13.27;;
75732;SDS011;73508;47.424;19.400;2023-12-28T00:44:01;27.17;;;13.97;;
75732;SDS011;73508;47.424;19.400;2023-12-28T00:46:27;26.40;;;13.40;;
75732;SDS011;73508;47.424;19.400;2023-12-28T00:48:52;23.23;;;12.80;;
75732;SDS011;73508;47.424;19.400;2023-12-28T00:51:18;28.30;;;13.60;;
75732;SDS011;73508;47.424;19.400;2023-12-28T00:53:43;29.67;;;13.63;;
75732;SDS011;73508;47.424;19.400;2023-12-28T00:56:09;28.17;;;13.97;;
75732;SDS011;73508;47.424;19.400;2023-12-28T00:58:38;24.77;;;13.00;;
75732;SDS011;73508;47.424;19.400;2023-12-28T01:01:04;25.98;;;12.77;;
75732;SDS011;73508;47.424;19.400;2023-12-28T01:03:29;28.93;;;13.03;;
75732;SDS011;73508;47.424;19.400;2023-12-28T01:05:55;26.80;;;13.23;;
75732;SDS011;73508;47.424;19.400;2023-12-28T01:08:20;29.17;;;13.57;;
75732;SDS011;73508;47.424;19.400;2023-12-28T01:10:45;24.00;;;13.37;;
75732;SDS011;73508;47.424;19.400;2023-12-28T01:13:11;24.15;;;12.18;;
75732;SDS011;73508;47.424;19.400;2023-12-28T01:15:36;23.37;;;12.60;;
75732;SDS011;73508;47.424;19.400;2023-12-28T01:18:01;23.50;;;12.00;;
75732;SDS011;73508;47.424;19.400;2023-12-28T01:20:27;26.00;;;12.80;;
75732;SDS011;73508;47.424;19.400;2023-12-28T01:22:52;25.73;;;12.90;;
75732;SDS011;73508;47.424;19.400;2023-12-28T01:25:18;23.43;;;11.83;;
75732;SDS011;73508;47.424;19.400;2023-12-28T01:27:43;23.43;;;11.73;;
75732;SDS011;73508;47.424;19.400;2023-12-28T01:30:08;22.50;;;11.60;;
75732;SDS011;73508;47.424;19.400;2023-12-28T01:32:34;21.63;;;11.97;;
75732;SDS011;73508;47.424;19.400;2023-12-28T01:34:59;20.20;;;10.57;;
75732;SDS011;73508;47.424;19.400;2023-12-28T01:37:25;21.27;;;11.43;;
75732;SDS011;73508;47.424;19.400;2023-12-28T01:39:50;22.95;;;10.65;;
75732;SDS011;73508;47.424;19.400;2023-12-28T01:42:15;21.50;;;11.07;;
75732;SDS011;73508;47.424;19.400;2023-12-28T01:44:41;21.03;;;10.53;;
75732;SDS011;73508;47.424;19.400;2023-12-28T01:47:06;21.13;;;10.37;;
75732;SDS011;73508;47.424;19.400;2023-12-28T01:49:32;20.57;;;10.10;;
75732;SDS011;73508;47.424;19.400;2023-12-28T01:51:59;19.85;;;10.38;;
75732;SDS011;73508;47.424;19.400;2023-12-28T01:54:25;20.00;;;10.75;;
75732;SDS011;73508;47.424;19.400;2023-12-28T01:56:51;19.20;;;9.40;;
75732;SDS011;73508;47.424;19.400;2023-12-28T01:59:16;20.90;;;10.63;;
75732;SDS011;73508;47.424;19.400;2023-12-28T02:04:43;18.55;;;9.63;;
75732;SDS011;73508;47.424;19.400;2023-12-28T02:07:11;19.30;;;10.30;;
75732;SDS011;73508;47.424;19.400;2023-12-28T02:09:38;20.25;;;9.50;;
75732;SDS011;73508;47.424;19.400;2023-12-28T02:12:03;17.87;;;9.17;;
75732;SDS011;73508;47.424;19.400;2023-12-28T02:14:29;20.40;;;9.27;;
75732;SDS011;73508;47.424;19.400;2023-12-28T02:17:02;19.42;;;9.63;;
75732;SDS011;73508;47.424;19.400;2023-12-28T02:19:31;15.67;;;8.73;;
75732;SDS011;73508;47.424;19.400;2023-12-28T02:21:59;18.62;;;9.93;;
75732;SDS011;73508;47.424;19.400;2023-12-28T02:24:25;17.52;;;9.55;;
75732;SDS011;73508;47.424;19.400;2023-12-28T02:26:50;17.80;;;8.87;;
75732;SDS011;73508;47.424;19.400;2023-12-28T02:29:15;17.97;;;9.47;;
75732;SDS011;73508;47.424;19.400;2023-12-28T02:31:46;17.42;;;9.18;;
75732;SDS011;73508;47.424;19.400;2023-12-28T02:34:23;18.57;;;9.67;;
75732;SDS011;73508;47.424;19.400;2023-12-28T02:36:53;21.12;;;9.93;;
75732;SDS011;73508;47.424;19.400;2023-12-28T02:39:19;18.23;;;10.18;;
75732;SDS011;73508;47.424;19.400;2023-12-28T02:41:45;17.95;;;9.70;;
75732;SDS011;73508;47.424;19.400;2023-12-28T02:44:11;17.70;;;9.83;;
75732;SDS011;73508;47.424;19.400;2023-12-28T02:46:37;17.67;;;9.52;;
75732;SDS011;73508;47.424;19.400;2023-12-28T02:49:02;18.70;;;9.17;;
75732;SDS011;73508;47.424;19.400;2023-12-28T02:51:28;18.40;;;9.93;;
75732;SDS011;73508;47.424;19.400;2023-12-28T02:53:53;18.77;;;9.23;;
75732;SDS011;73508;47.424;19.400;2023-12-28T02:56:18;20.88;;;9.20;;
75732;SDS011;73508;47.424;19.400;2023-12-28T02:58:44;19.10;;;9.87;;
75732;SDS011;73508;47.424;19.400;2023-12-28T03:01:09;17.90;;;9.13;;
75732;SDS011;73508;47.424;19.400;2023-12-28T03:03:34;17.40;;;10.27;;
75732;SDS011;73508;47.424;19.400;2023-12-28T03:06:00;18.40;;;8.73;;
75732;SDS011;73508;47.424;19.400;2023-12-28T03:08:25;16.17;;;8.73;;
75732;SDS011;73508;47.424;19.400;2023-12-28T03:10:51;19.27;;;9.13;;
75732;SDS011;73508;47.424;19.400;2023-12-28T03:13:17;15.33;;;8.43;;
75732;SDS011;73508;47.424;19.400;2023-12-28T03:15:43;17.48;;;9.07;;
75732;SDS011;73508;47.424;19.400;2023-12-28T03:18:08;17.50;;;9.43;;
75732;SDS011;73508;47.424;19.400;2023-12-28T03:20:34;19.13;;;9.73;;
75732;SDS011;73508;47.424;19.400;2023-12-28T03:22:59;17.90;;;9.33;;
75732;SDS011;73508;47.424;19.400;2023-12-28T03:25:24;16.90;;;9.27;;
75732;SDS011;73508;47.424;19.400;2023-12-28T03:27:50;18.27;;;9.63;;
75732;SDS011;73508;47.424;19.400;2023-12-28T03:30:15;15.57;;;9.07;;
75732;SDS011;73508;47.424;19.400;2023-12-28T03:32:41;18.40;;;8.67;;
75732;SDS011;73508;47.424;19.400;2023-12-28T03:35:06;16.90;;;9.20;;
75732;SDS011;73508;47.424;19.400;2023-12-28T03:37:32;17.17;;;8.75;;
75732;SDS011;73508;47.424;19.400;2023-12-28T03:39:58;17.80;;;8.87;;
75732;SDS011;73508;47.424;19.400;2023-12-28T03:42:23;14.30;;;7.90;;
75732;SDS011;73508;47.424;19.400;2023-12-28T03:44:48;16.80;;;7.97;;
75732;SDS011;73508;47.424;19.400;2023-12-28T03:47:14;13.87;;;7.87;;
75732;SDS011;73508;47.424;19.400;2023-12-28T03:49:39;16.07;;;8.50;;
75732;SDS011;73508;47.424;19.400;2023-12-28T03:52:05;18.37;;;9.20;;
75732;SDS011;73508;47.424;19.400;2023-12-28T03:54:30;17.30;;;8.80;;
75732;SDS011;73508;47.424;19.400;2023-12-28T03:56:55;17.50;;;8.70;;
75732;SDS011;73508;47.424;19.400;2023-12-28T03:59:22;17.98;;;9.30;;
75732;SDS011;73508;47.424;19.400;2023-12-28T04:01:47;15.93;;;8.37;;
75732;SDS011;73508;47.424;19.400;2023-12-28T04:04:13;17.30;;;8.80;;
75732;SDS011;73508;47.424;19.400;2023-12-28T04:06:38;18.63;;;9.00;;
75732;SDS011;73508;47.424;19.400;2023-12-28T04:09:03;18.47;;;9.33;;
75732;SDS011;73508;47.424;19.400;2023-12-28T04:11:29;17.33;;;8.88;;
75732;SDS011;73508;47.424;19.400;2023-12-28T04:13:54;19.23;;;9.47;;
75732;SDS011;73508;47.424;19.400;2023-12-28T04:16:20;18.37;;;8.43;;
75732;SDS011;73508;47.424;19.400;2023-12-28T04:18:45;16.97;;;8.20;;
75732;SDS011;73508;47.424;19.400;2023-12-28T04:21:11;20.87;;;8.97;;
75732;SDS011;73508;47.424;19.400;2023-12-28T04:23:37;19.37;;;9.80;;
75732;SDS011;73508;47.424;19.400;2023-12-28T04:26:03;18.77;;;8.98;;
75732;SDS011;73508;47.424;19.400;2023-12-28T04:28:29;19.10;;;9.33;;
75732;SDS011;73508;47.424;19.400;2023-12-28T04:30:54;18.73;;;9.43;;
75732;SDS011;73508;47.424;19.400;2023-12-28T04:33:20;20.23;;;9.37;;
75732;SDS011;73508;47.424;19.400;2023-12-28T04:35:45;23.63;;;9.80;;
75732;SDS011;73508;47.424;19.400;2023-12-28T04:38:11;20.60;;;9.27;;
75732;SDS011;73508;47.424;19.400;2023-12-28T04:40:37;19.23;;;9.53;;
75732;SDS011;73508;47.424;19.400;2023-12-28T04:43:02;17.07;;;8.77;;
75732;SDS011;73508;47.424;19.400;2023-12-28T04:45:28;18.77;;;8.65;;
75732;SDS011;73508;47.424;19.400;2023-12-28T04:47:53;17.73;;;8.33;;
75732;SDS011;73508;47.424;19.400;2023-12-28T04:50:18;16.93;;;8.47;;
75732;SDS011;73508;47.424;19.400;2023-12-28T04:52:44;17.10;;;8.27;;
75732;SDS011;73508;47.424;19.400;2023-12-28T04:55:09;15.50;;;8.47;;
75732;SDS011;73508;47.424;19.400;2023-12-28T04:57:35;20.73;;;9.05;;
75732;SDS011;73508;47.424;19.400;2023-12-28T05:00:00;16.97;;;8.00;;
75732;SDS011;73508;47.424;19.400;2023-12-28T05:02:25;18.03;;;8.33;;
75732;SDS011;73508;47.424;19.400;2023-12-28T05:04:51;19.93;;;8.67;;
75732;SDS011;73508;47.424;19.400;2023-12-28T05:07:16;22.37;;;9.33;;
75732;SDS011;73508;47.424;19.400;2023-12-28T05:09:41;15.57;;;8.52;;
75732;SDS011;73508;47.424;19.400;2023-12-28T05:12:07;21.70;;;8.80;;
75732;SDS011;73508;47.424;19.400;2023-12-28T05:14:32;15.67;;;8.23;;
75732;SDS011;73508;47.424;19.400;2023-12-28T05:16:58;18.40;;;8.37;;
75732;SDS011;73508;47.424;19.400;2023-12-28T05:19:23;17.07;;;8.70;;
75732;SDS011;73508;47.424;19.400;2023-12-28T05:21:48;17.73;;;8.90;;
75732;SDS011;73508;47.424;19.400;2023-12-28T05:24:14;17.23;;;8.90;;
75732;SDS011;73508;47.424;19.400;2023-12-28T05:26:39;18.80;;;8.37;;
75732;SDS011;73508;47.424;19.400;2023-12-28T05:29:05;17.10;;;8.67;;
75732;SDS011;73508;47.424;19.400;2023-12-28T05:31:30;18.08;;;8.80;;
75732;SDS011;73508;47.424;19.400;2023-12-28T05:33:55;16.53;;;8.33;;
75732;SDS011;73508;47.424;19.400;2023-12-28T05:36:23;20.35;;;9.25;;
75732;SDS011;73508;47.424;19.400;2023-12-28T05:38:48;18.00;;;8.27;;
75732;SDS011;73508;47.424;19.400;2023-12-28T05:41:13;21.20;;;8.97;;
75732;SDS011;73508;47.424;19.400;2023-12-28T05:43:39;17.63;;;8.37;;
75732;SDS011;73508;47.424;19.400;2023-12-28T05:46:05;18.60;;;8.52;;
75732;SDS011;73508;47.424;19.400;2023-12-28T05:48:30;19.20;;;8.63;;
75732;SDS011;73508;47.424;19.400;2023-12-28T05:50:59;20.03;;;9.70;;
75732;SDS011;73508;47.424;19.400;2023-12-28T05:53:27;18.08;;;8.73;;
75732;SDS011;73508;47.424;19.400;2023-12-28T05:55:54;17.02;;;8.00;;
75732;SDS011;73508;47.424;19.400;2023-12-28T05:58:19;16.50;;;9.00;;
75732;SDS011;73508;47.424;19.400;2023-12-28T06:00:44;18.87;;;8.50;;
75732;SDS011;73508;47.424;19.400;2023-12-28T06:03:12;17.75;;;8.30;;
75732;SDS011;73508;47.424;19.400;2023-12-28T06:05:38;17.67;;;8.63;;
75732;SDS011;73508;47.424;19.400;2023-12-28T06:08:03;14.40;;;8.50;;
75732;SDS011;73508;47.424;19.400;2023-12-28T06:10:29;19.48;;;8.80;;
75732;SDS011;73508;47.424;19.400;2023-12-28T06:12:54;22.23;;;9.73;;
75732;SDS011;73508;47.424;19.400;2023-12-28T06:15:20;16.23;;;8.03;;
75732;SDS011;73508;47.424;19.400;2023-12-28T06:17:45;18.67;;;8.73;;
75732;SDS011;73508;47.424;19.400;2023-12-28T06:20:11;20.23;;;9.47;;
75732;SDS011;73508;47.424;19.400;2023-12-28T06:22:36;17.58;;;9.25;;
75732;SDS011;73508;47.424;19.400;2023-12-28T06:25:02;17.43;;;8.10;;
75732;SDS011;73508;47.424;19.400;2023-12-28T06:27:28;16.67;;;7.93;;
75732;SDS011;73508;47.424;19.400;2023-12-28T06:29:54;16.47;;;7.50;;
75732;SDS011;73508;47.424;19.400;2023-12-28T06:32:19;14.87;;;7.63;;
75732;SDS011;73508;47.424;19.400;2023-12-28T06:34:44;17.35;;;7.85;;
75732;SDS011;73508;47.424;19.400;2023-12-28T06:37:10;17.23;;;8.60;;
75732;SDS011;73508;47.424;19.400;2023-12-28T06:39:35;20.07;;;9.90;;
75732;SDS011;73508;47.424;19.400;2023-12-28T06:42:00;23.90;;;9.67;;
75732;SDS011;73508;47.424;19.400;2023-12-28T06:44:26;19.97;;;8.60;;
75732;SDS011;73508;47.424;19.400;2023-12-28T06:46:51;21.63;;;10.07;;
75732;SDS011;73508;47.424;19.400;2023-12-28T06:49:16;21.63;;;9.40;;
75732;SDS011;73508;47.424;19.400;2023-12-28T06:51:41;23.90;;;10.33;;
75732;SDS011;73508;47.424;19.400;2023-12-28T06:54:08;22.92;;;10.45;;
75732;SDS011;73508;47.424;19.400;2023-12-28T06:56:34;23.30;;;10.27;;
75732;SDS011;73508;47.424;19.400;2023-12-28T06:58:59;28.73;;;10.50;;
75732;SDS011;73508;47.424;19.400;2023-12-28T07:01:24;26.60;;;10.67;;
75732;SDS011;73508;47.424;19.400;2023-12-28T07:03:50;22.90;;;9.90;;
75732;SDS011;73508;47.424;19.400;2023-12-28T07:06:15;24.00;;;10.43;;
75732;SDS011;73508;47.424;19.400;2023-12-28T07:08:40;23.50;;;10.67;;
75732;SDS011;73508;47.424;19.400;2023-12-28T07:11:06;31.07;;;11.53;;
75732;SDS011;73508;47.424;19.400;2023-12-28T07:13:34;29.20;;;12.02;;
75732;SDS011;73508;47.424;19.400;2023-12-28T07:16:00;26.93;;;11.20;;
75732;SDS011;73508;47.424;19.400;2023-12-28T07:18:25;27.20;;;12.37;;
75732;SDS011;73508;47.424;19.400;2023-12-28T07:20:50;28.43;;;12.77;;
75732;SDS011;73508;47.424;19.400;2023-12-28T07:23:16;31.40;;;13.48;;
75732;SDS011;73508;47.424;19.400;2023-12-28T07:25:41;29.47;;;13.70;;
75732;SDS011;73508;47.424;19.400;2023-12-28T07:28:06;37.13;;;14.07;;
75732;SDS011;73508;47.424;19.400;2023-12-28T07:30:32;31.83;;;13.83;;
75732;SDS011;73508;47.424;19.400;2023-12-28T07:32:57;29.87;;;14.10;;
75732;SDS011;73508;47.424;19.400;2023-12-28T07:35:23;33.07;;;14.47;;
75732;SDS011;73508;47.424;19.400;2023-12-28T07:37:48;32.80;;;13.75;;
75732;SDS011;73508;47.424;19.400;2023-12-28T07:40:14;34.03;;;14.90;;
75732;SDS011;73508;47.424;19.400;2023-12-28T07:42:40;33.87;;;14.17;;
75732;SDS011;73508;47.424;19.400;2023-12-28T07:45:05;33.30;;;13.93;;
75732;SDS011;73508;47.424;19.400;2023-12-28T07:47:31;34.30;;;13.07;;
75732;SDS011;73508;47.424;19.400;2023-12-28T07:49:56;29.77;;;13.60;;
75732;SDS011;73508;47.424;19.400;2023-12-28T07:52:21;32.07;;;13.83;;
75732;SDS011;73508;47.424;19.400;2023-12-28T07:54:47;29.63;;;13.30;;
75732;SDS011;73508;47.424;19.400;2023-12-28T07:57:12;24.47;;;11.67;;
75732;SDS011;73508;47.424;19.400;2023-12-28T07:59:37;25.30;;;12.50;;
75732;SDS011;73508;47.424;19.400;2023-12-28T08:02:03;22.67;;;11.43;;
75732;SDS011;73508;47.424;19.400;2023-12-28T08:04:28;25.67;;;11.75;;
75732;SDS011;73508;47.424;19.400;2023-12-28T08:06:54;22.70;;;11.47;;
75732;SDS011;73508;47.424;19.400;2023-12-28T08:09:19;26.60;;;11.13;;
75732;SDS011;73508;47.424;19.400;2023-12-28T08:11:44;27.53;;;12.00;;
75732;SDS011;73508;47.424;19.400;2023-12-28T08:14:10;22.70;;;11.60;;
75732;SDS011;73508;47.424;19.400;2023-12-28T08:16:35;23.60;;;11.77;;
75732;SDS011;73508;47.424;19.400;2023-12-28T08:19:01;23.57;;;11.63;;
75732;SDS011;73508;47.424;19.400;2023-12-28T08:21:26;25.37;;;12.67;;
75732;SDS011;73508;47.424;19.400;2023-12-28T08:23:52;23.67;;;11.50;;
75732;SDS011;73508;47.424;19.400;2023-12-28T08:26:17;23.60;;;12.13;;
75732;SDS011;73508;47.424;19.400;2023-12-28T08:28:42;24.70;;;12.50;;
75732;SDS011;73508;47.424;19.400;2023-12-28T08:31:08;21.97;;;11.27;;
75732;SDS011;73508;47.424;19.400;2023-12-28T08:33:34;23.87;;;11.12;;
75732;SDS011;73508;47.424;19.400;2023-12-28T08:36:00;21.77;;;11.67;;
75732;SDS011;73508;47.424;19.400;2023-12-28T08:38:27;24.95;;;11.60;;
75732;SDS011;73508;47.424;19.400;2023-12-28T08:40:53;23.30;;;12.53;;
75732;SDS011;73508;47.424;19.400;2023-12-28T08:43:18;27.07;;;12.27;;
75732;SDS011;73508;47.424;19.400;2023-12-28T08:45:43;28.87;;;12.47;;
75732;SDS011;73508;47.424;19.400;2023-12-28T08:48:09;22.42;;;12.07;;
75732;SDS011;73508;47.424;19.400;2023-12-28T08:50:34;24.07;;;11.47;;
75732;SDS011;73508;47.424;19.400;2023-12-28T08:52:59;22.23;;;11.47;;
75732;SDS011;73508;47.424;19.400;2023-12-28T08:55:25;23.10;;;11.80;;
75732;SDS011;73508;47.424;19.400;2023-12-28T08:57:50;20.90;;;10.80;;
75732;SDS011;73508;47.424;19.400;2023-12-28T09:00:15;23.93;;;10.80;;
75732;SDS011;73508;47.424;19.400;2023-12-28T09:02:41;20.73;;;11.27;;
75732;SDS011;73508;47.424;19.400;2023-12-28T09:05:07;21.97;;;11.43;;
75732;SDS011;73508;47.424;19.400;2023-12-28T09:07:32;23.40;;;11.43;;
75732;SDS011;73508;47.424;19.400;2023-12-28T09:09:58;24.55;;;11.50;;
75732;SDS011;73508;47.424;19.400;2023-12-28T09:12:23;22.83;;;11.77;;
75732;SDS011;73508;47.424;19.400;2023-12-28T09:14:49;24.17;;;12.07;;
75732;SDS011;73508;47.424;19.400;2023-12-28T09:17:17;25.37;;;12.32;;
75732;SDS011;73508;47.424;19.400;2023-12-28T09:19:43;22.45;;;11.57;;
75732;SDS011;73508;47.424;19.400;2023-12-28T09:22:08;25.23;;;11.67;;
75732;SDS011;73508;47.424;19.400;2023-12-28T09:24:34;22.53;;;11.73;;
75732;SDS011;73508;47.424;19.400;2023-12-28T09:26:59;21.30;;;11.87;;
75732;SDS011;73508;47.424;19.400;2023-12-28T09:29:24;28.67;;;13.30;;
75732;SDS011;73508;47.424;19.400;2023-12-28T09:31:50;24.73;;;12.93;;
75732;SDS011;73508;47.424;19.400;2023-12-28T09:34:15;28.90;;;13.77;;
75732;SDS011;73508;47.424;19.400;2023-12-28T09:36:41;23.63;;;11.83;;
75732;SDS011;73508;47.424;19.400;2023-12-28T09:39:06;23.17;;;11.90;;
75732;SDS011;73508;47.424;19.400;2023-12-28T09:41:33;24.70;;;12.80;;
75732;SDS011;73508;47.424;19.400;2023-12-28T09:44:13;25.42;;;12.65;;
75732;SDS011;73508;47.424;19.400;2023-12-28T09:46:43;26.67;;;13.47;;
75732;SDS011;73508;47.424;19.400;2023-12-28T09:49:10;26.55;;;13.15;;
75732;SDS011;73508;47.424;19.400;2023-12-28T09:51:36;24.55;;;12.82;;
75732;SDS011;73508;47.424;19.400;2023-12-28T09:54:03;25.80;;;12.60;;
75732;SDS011;73508;47.424;19.400;2023-12-28T09:56:28;24.75;;;12.63;;
75732;SDS011;73508;47.424;19.400;2023-12-28T09:58:54;22.63;;;12.50;;
75732;SDS011;73508;47.424;19.400;2023-12-28T10:01:20;24.10;;;12.00;;
75732;SDS011;73508;47.424;19.400;2023-12-28T10:03:45;25.40;;;12.57;;
75732;SDS011;73508;47.424;19.400;2023-12-28T10:06:11;27.77;;;13.90;;
75732;SDS011;73508;47.424;19.400;2023-12-28T10:08:36;24.50;;;13.17;;
75732;SDS011;73508;47.424;19.400;2023-12-28T10:11:02;25.03;;;13.50;;
75732;SDS011;73508;47.424;19.400;2023-12-28T10:13:27;26.20;;;13.38;;
75732;SDS011;73508;47.424;19.400;2023-12-28T10:15:56;26.67;;;12.23;;
75732;SDS011;73508;47.424;19.400;2023-12-28T10:18:22;29.25;;;14.63;;
75732;SDS011;73508;47.424;19.400;2023-12-28T10:20:49;23.75;;;12.68;;
75732;SDS011;73508;47.424;19.400;2023-12-28T10:23:15;23.25;;;12.65;;
75732;SDS011;73508;47.424;19.400;2023-12-28T10:25:41;25.93;;;13.57;;
75732;SDS011;73508;47.424;19.400;2023-12-28T10:28:07;25.33;;;12.73;;
75732;SDS011;73508;47.424;19.400;2023-12-28T10:30:32;24.07;;;13.20;;
75732;SDS011;73508;47.424;19.400;2023-12-28T10:32:58;23.13;;;12.83;;
75732;SDS011;73508;47.424;19.400;2023-12-28T10:35:23;25.00;;;12.47;;
75732;SDS011;73508;47.424;19.400;2023-12-28T10:37:49;27.43;;;14.37;;
75732;SDS011;73508;47.424;19.400;2023-12-28T10:40:20;25.30;;;12.70;;
75732;SDS011;73508;47.424;19.400;2023-12-28T10:42:49;22.00;;;12.82;;
75732;SDS011;73508;47.424;19.400;2023-12-28T10:45:19;23.10;;;13.10;;
75732;SDS011;73508;47.424;19.400;2023-12-28T10:47:51;21.95;;;12.35;;
75732;SDS011;73508;47.424;19.400;2023-12-28T10:50:26;25.73;;;13.27;;
75732;SDS011;73508;47.424;19.400;2023-12-28T10:52:53;23.17;;;12.57;;
75732;SDS011;73508;47.424;19.400;2023-12-28T10:55:34;25.40;;;13.15;;
75732;SDS011;73508;47.424;19.400;2023-12-28T10:58:21;19.90;;;11.63;;
75732;SDS011;73508;47.424;19.400;2023-12-28T11:00:54;25.80;;;12.55;;
75732;SDS011;73508;47.424;19.400;2023-12-28T11:03:24;24.25;;;13.02;;
75732;SDS011;73508;47.424;19.400;2023-12-28T11:05:53;26.62;;;13.00;;
75732;SDS011;73508;47.424;19.400;2023-12-28T11:08:18;22.63;;;13.83;;
75732;SDS011;73508;47.424;19.400;2023-12-28T11:10:44;25.35;;;13.13;;
75732;SDS011;73508;47.424;19.400;2023-12-28T11:13:10;25.33;;;12.55;;
75732;SDS011;73508;47.424;19.400;2023-12-28T11:15:37;24.08;;;12.90;;
75732;SDS011;73508;47.424;19.400;2023-12-28T11:18:03;20.27;;;11.83;;
75732;SDS011;73508;47.424;19.400;2023-12-28T11:20:28;25.15;;;13.00;;
75732;SDS011;73508;47.424;19.400;2023-12-28T11:22:54;22.87;;;12.57;;
75732;SDS011;73508;47.424;19.400;2023-12-28T11:25:21;23.40;;;13.07;;
75732;SDS011;73508;47.424;19.400;2023-12-28T11:27:46;20.63;;;11.60;;
75732;SDS011;73508;47.424;19.400;2023-12-28T11:30:12;23.62;;;12.05;;
75732;SDS011;73508;47.424;19.400;2023-12-28T11:32:38;24.93;;;12.37;;
75732;SDS011;73508;47.424;19.400;2023-12-28T11:35:07;23.23;;;12.40;;
75732;SDS011;73508;47.424;19.400;2023-12-28T11:37:36;24.10;;;13.40;;
75732;SDS011;73508;47.424;19.400;2023-12-28T11:40:13;22.60;;;12.43;;
75732;SDS011;73508;47.424;19.400;2023-12-28T11:42:51;20.83;;;12.10;;
75732;SDS011;73508;47.424;19.400;2023-12-28T11:45:18;21.57;;;12.03;;
75732;SDS011;73508;47.424;19.400;2023-12-28T11:47:43;19.52;;;11.07;;
75732;SDS011;73508;47.424;19.400;2023-12-28T11:50:09;25.15;;;11.35;;
75732;SDS011;73508;47.424;19.400;2023-12-28T11:52:35;18.80;;;10.93;;
75732;SDS011;73508;47.424;19.400;2023-12-28T11:55:00;18.80;;;10.60;;
75732;SDS011;73508;47.424;19.400;2023-12-28T11:57:27;21.50;;;11.70;;
75732;SDS011;73508;47.424;19.400;2023-12-28T11:59:53;19.43;;;11.30;;
75732;SDS011;73508;47.424;19.400;2023-12-28T12:02:20;18.37;;;10.40;;
75732;SDS011;73508;47.424;19.400;2023-12-28T12:04:45;24.43;;;12.03;;
75732;SDS011;73508;47.424;19.400;2023-12-28T12:07:10;19.10;;;11.03;;
75732;SDS011;73508;47.424;19.400;2023-12-28T12:09:36;19.07;;;10.67;;
75732;SDS011;73508;47.424;19.400;2023-12-28T12:12:01;27.13;;;12.97;;
75732;SDS011;73508;47.424;19.400;2023-12-28T12:14:27;19.77;;;10.45;;
75732;SDS011;73508;47.424;19.400;2023-12-28T12:16:53;21.75;;;11.38;;
75732;SDS011;73508;47.424;19.400;2023-12-28T12:19:21;25.10;;;12.50;;
75732;SDS011;73508;47.424;19.400;2023-12-28T12:21:47;22.77;;;11.80;;
75732;SDS011;73508;47.424;19.400;2023-12-28T12:24:13;21.55;;;11.60;;
75732;SDS011;73508;47.424;19.400;2023-12-28T12:26:38;19.47;;;11.07;;
75732;SDS011;73508;47.424;19.400;2023-12-28T12:29:04;19.87;;;11.53;;
75732;SDS011;73508;47.424;19.400;2023-12-28T12:31:29;20.90;;;10.30;;
75732;SDS011;73508;47.424;19.400;2023-12-28T12:33:55;24.43;;;12.27;;
75732;SDS011;73508;47.424;19.400;2023-12-28T12:36:20;19.70;;;11.47;;
75732;SDS011;73508;47.424;19.400;2023-12-28T12:38:47;22.42;;;11.77;;
75732;SDS011;73508;47.424;19.400;2023-12-28T12:41:12;27.00;;;11.77;;
75732;SDS011;73508;47.424;19.400;2023-12-28T12:43:38;25.83;;;12.67;;
75732;SDS011;73508;47.424;19.400;2023-12-28T12:46:04;22.55;;;11.77;;
75732;SDS011;73508;47.424;19.400;2023-12-28T12:48:29;24.17;;;11.63;;
75732;SDS011;73508;47.424;19.400;2023-12-28T12:50:55;22.33;;;12.02;;
75732;SDS011;73508;47.424;19.400;2023-12-28T12:53:21;20.70;;;11.30;;
75732;SDS011;73508;47.424;19.400;2023-12-28T12:55:46;21.77;;;11.93;;
75732;SDS011;73508;47.424;19.400;2023-12-28T12:58:12;21.10;;;11.70;;
75732;SDS011;73508;47.424;19.400;2023-12-28T13:00:38;21.37;;;11.55;;
75732;SDS011;73508;47.424;19.400;2023-12-28T13:03:08;19.52;;;11.52;;
75732;SDS011;73508;47.424;19.400;2023-12-28T13:05:37;24.15;;;11.32;;
75732;SDS011;73508;47.424;19.400;2023-12-28T13:08:03;23.10;;;10.63;;
75732;SDS011;73508;47.424;19.400;2023-12-28T13:10:29;21.35;;;10.70;;
75732;SDS011;73508;47.424;19.400;2023-12-28T13:12:54;22.43;;;10.70;;
75732;SDS011;73508;47.424;19.400;2023-12-28T13:15:19;19.07;;;10.70;;
75732;SDS011;73508;47.424;19.400;2023-12-28T13:17:45;19.23;;;10.00;;
75732;SDS011;73508;47.424;19.400;2023-12-28T13:20:10;21.50;;;10.20;;
75732;SDS011;73508;47.424;19.400;2023-12-28T13:22:36;20.27;;;10.20;;
75732;SDS011;73508;47.424;19.400;2023-12-28T13:25:01;17.50;;;9.67;;
75732;SDS011;73508;47.424;19.400;2023-12-28T13:27:27;23.67;;;11.73;;
75732;SDS011;73508;47.424;19.400;2023-12-28T13:29:53;20.40;;;11.27;;
75732;SDS011;73508;47.424;19.400;2023-12-28T13:32:19;20.48;;;11.48;;
75732;SDS011;73508;47.424;19.400;2023-12-28T13:34:46;20.02;;;11.15;;
75732;SDS011;73508;47.424;19.400;2023-12-28T13:37:11;21.90;;;11.23;;
75732;SDS011;73508;47.424;19.400;2023-12-28T13:39:37;20.63;;;11.77;;
75732;SDS011;73508;47.424;19.400;2023-12-28T13:42:04;22.20;;;11.35;;
75732;SDS011;73508;47.424;19.400;2023-12-28T13:44:32;21.90;;;11.75;;
75732;SDS011;73508;47.424;19.400;2023-12-28T13:46:58;20.55;;;11.15;;
75732;SDS011;73508;47.424;19.400;2023-12-28T13:49:23;20.47;;;12.20;;
75732;SDS011;73508;47.424;19.400;2023-12-28T13:51:50;25.23;;;11.57;;
75732;SDS011;73508;47.424;19.400;2023-12-28T13:54:16;23.73;;;11.75;;
75732;SDS011;73508;47.424;19.400;2023-12-28T13:56:44;22.60;;;11.20;;
75732;SDS011;73508;47.424;19.400;2023-12-28T13:59:09;22.13;;;12.20;;
75732;SDS011;73508;47.424;19.400;2023-12-28T14:01:35;25.15;;;12.35;;
75732;SDS011;73508;47.424;19.400;2023-12-28T14:04:00;25.50;;;11.50;;
75732;SDS011;73508;47.424;19.400;2023-12-28T14:06:26;22.17;;;12.07;;
75732;SDS011;73508;47.424;19.400;2023-12-28T14:08:51;24.52;;;12.57;;